Time;durP1;ratioP1;P1;durP2;ratioP2;P2;SDS_P1;SDS_P2;PMS_P1;PMS_P2;Temp;Humidity;BMP_temperature;BMP_pressure;BME280_temperature;BME280_humidity;BME280_pressure;Samples;Min_cycle;Max_cycle;Signal;HPM_P1;HPM_P2
2023/09/12 00:01:05;;;;;;;37.65;22.60;;;;;;;18.88;100.00;101125.78;6242431;23;20355;-77
2023/09/12 00:03:30;;;;;;;36.38;25.20;;;;;;;18.86;100.00;101126.78;6215053;23;20481;-77
2023/09/12 00:05:57;;;;;;;37.60;22.75;;;;;;;18.86;100.00;101134.09;6241563;23;20004;-77
2023/09/12 00:08:23;;;;;;;39.15;25.00;;;;;;;18.85;100.00;101143.25;6241770;23;20004;-77
2023/09/12 00:11:10;;;;;;;37.22;23.75;;;;;;;18.83;100.00;101140.69;6214826;23;20028;-77
2023/09/12 00:13:37;;;;;;;32.78;23.45;;;;;;;18.79;100.00;101139.28;6215138;23;20061;-77
2023/09/12 00:16:02;;;;;;;35.90;23.15;;;;;;;18.76;100.00;101134.16;6242185;23;20000;-77
2023/09/12 00:18:28;;;;;;;34.58;21.70;;;;;;;18.73;100.00;101141.78;6215410;23;20000;-77
2023/09/12 00:20:53;;;;;;;34.17;22.27;;;;;;;18.68;100.00;101140.41;6241907;23;20417;-77
2023/09/12 00:23:21;;;;;;;37.95;23.27;;;;;;;18.65;100.00;101138.00;6214497;23;20077;-77
2023/09/12 00:25:46;;;;;;;32.25;21.55;;;;;;;18.63;100.00;101141.91;6240575;23;20378;-77
2023/09/12 00:28:11;;;;;;;34.42;24.17;;;;;;;18.59;100.00;101151.38;6214986;23;20047;-77
2023/09/12 00:30:37;;;;;;;32.17;22.15;;;;;;;18.54;100.00;101140.09;6241946;23;20004;-77
2023/09/12 00:33:02;;;;;;;32.63;22.23;;;;;;;18.48;100.00;101141.63;6242034;23;20008;-77
2023/09/12 00:35:28;;;;;;;38.20;21.48;;;;;;;18.44;100.00;101141.06;6242030;23;20006;-77
2023/09/12 00:37:53;;;;;;;31.92;21.60;;;;;;;18.39;100.00;101139.81;6241871;23;20008;-77
2023/09/12 00:40:18;;;;;;;34.10;21.95;;;;;;;18.36;100.00;101146.44;6242269;23;20322;-77
2023/09/12 00:42:44;;;;;;;32.28;22.50;;;;;;;18.31;100.00;101146.03;6241719;23;20374;-77
2023/09/12 00:45:09;;;;;;;32.50;21.02;;;;;;;18.26;100.00;101146.53;6214348;23;20008;-77
2023/09/12 00:47:36;;;;;;;35.08;22.00;;;;;;;18.22;100.00;101136.94;6241312;23;20000;-77
2023/09/12 00:50:04;;;;;;;31.25;19.77;;;;;;;18.17;100.00;101134.69;6215232;23;20004;-77
2023/09/12 00:52:33;;;;;;;33.90;21.40;;;;;;;18.17;100.00;101139.31;6242359;23;20011;-77
2023/09/12 00:54:58;;;;;;;32.30;21.17;;;;;;;18.15;100.00;101144.88;6215489;23;21077;-77
2023/09/12 00:57:26;;;;;;;30.60;19.58;;;;;;;18.10;100.00;101132.78;6241672;23;20235;-77
2023/09/12 00:59:53;;;;;;;33.05;20.02;;;;;;;18.07;100.00;101133.94;6243851;23;20075;-77
2023/09/12 01:02:19;;;;;;;34.00;21.02;;;;;;;18.05;100.00;101133.19;6219909;23;20008;-75
2023/09/12 01:04:45;;;;;;;32.08;20.45;;;;;;;18.03;100.00;101137.13;6219641;23;20011;-75
2023/09/12 01:07:10;;;;;;;32.78;21.10;;;;;;;17.99;100.00;101136.56;6245786;23;20004;-75
2023/09/12 01:09:36;;;;;;;31.70;20.25;;;;;;;17.99;100.00;101128.38;6218935;23;20099;-75
2023/09/12 01:12:04;;;;;;;32.42;20.50;;;;;;;17.96;100.00;101131.41;6218626;23;20000;-76
2023/09/12 01:14:30;;;;;;;31.58;19.13;;;;;;;17.93;100.00;101120.84;6246412;23;20472;-76
2023/09/12 01:16:57;;;;;;;34.53;21.52;;;;;;;17.91;100.00;101125.59;6246614;23;20000;-75
2023/09/12 01:19:23;;;;;;;33.03;19.15;;;;;;;17.86;100.00;101133.31;6245730;23;20404;-75
2023/09/12 01:21:51;;;;;;;32.92;19.55;;;;;;;17.84;100.00;101124.47;6219059;23;20000;-75
2023/09/12 01:25:04;;;;;;;33.13;20.02;;;;;;;17.86;100.00;101128.72;6245984;23;20343;-75
2023/09/12 01:27:35;;;;;;;35.53;20.20;;;;;;;17.79;100.00;101124.94;6122974;23;20021;-75
2023/09/12 01:30:05;;;;;;;31.08;19.05;;;;;;;17.76;100.00;101123.38;6121626;23;20147;-76
2023/09/12 01:32:32;;;;;;;29.90;18.48;;;;;;;17.75;100.00;101124.38;6096939;23;20006;-75
2023/09/12 01:34:58;;;;;;;30.88;20.95;;;;;;;17.72;100.00;101124.69;6099657;23;20502;-75
2023/09/12 01:37:23;;;;;;;32.10;18.85;;;;;;;17.68;100.00;101119.72;6099714;23;20006;-76
2023/09/12 01:39:49;;;;;;;29.63;18.88;;;;;;;17.65;100.00;101119.00;6098688;23;20017;-75
2023/09/12 01:42:18;;;;;;;30.80;18.88;;;;;;;17.62;100.00;101113.84;6123261;23;20045;-75
2023/09/12 01:44:44;;;;;;;30.75;18.42;;;;;;;17.62;100.00;101123.88;6124034;23;20006;-75
2023/09/12 01:47:11;;;;;;;30.95;18.48;;;;;;;17.59;100.00;101124.19;6122782;23;20402;-76
2023/09/12 01:49:40;;;;;;;31.17;20.08;;;;;;;17.56;100.00;101119.91;6123574;23;20005;-75
2023/09/12 01:52:07;;;;;;;30.08;18.30;;;;;;;17.54;100.00;101123.78;6097723;23;20013;-75
2023/09/12 01:54:34;;;;;;;30.90;18.98;;;;;;;17.50;100.00;101125.06;6122976;23;20504;-75
2023/09/12 01:57:00;;;;;;;32.90;18.63;;;;;;;17.49;100.00;101135.09;6122696;23;20068;-75
2023/09/12 01:59:26;;;;;;;30.20;19.67;;;;;;;17.45;100.00;101128.25;6122924;23;20006;-76
2023/09/12 02:01:51;;;;;;;32.83;19.77;;;;;;;17.45;100.00;101128.25;6098370;23;20002;-75
2023/09/12 02:04:17;;;;;;;29.60;16.63;;;;;;;17.40;100.00;101126.00;6219403;23;20351;-75
2023/09/12 02:06:42;;;;;;;30.85;18.70;;;;;;;17.40;100.00;101125.16;6245564;23;20012;-75
2023/09/12 02:09:07;;;;;;;28.85;16.73;;;;;;;17.38;100.00;101122.59;6246295;23;20004;-75
2023/09/12 02:11:33;;;;;;;27.58;16.48;;;;;;;17.37;100.00;101120.03;6265091;23;19988;-76
2023/09/12 02:13:58;;;;;;;29.65;15.60;;;;;;;17.37;100.00;101109.16;6268122;23;19999;-76
2023/09/12 02:16:23;;;;;;;27.45;15.48;;;;;;;17.36;100.00;101108.28;6268463;23;20007;-76
2023/09/12 02:18:49;;;;;;;26.50;14.40;;;;;;;17.33;100.00;101114.00;6242873;23;20322;-76
2023/09/12 02:21:15;;;;;;;26.95;13.57;;;;;;;17.32;100.00;101116.88;6242983;23;20008;-77
2023/09/12 02:23:41;;;;;;;23.00;13.15;;;;;;;17.26;100.00;101124.66;6242885;23;20044;-77
2023/09/12 02:26:06;;;;;;;22.70;12.63;;;;;;;17.25;100.00;101124.78;6268145;23;20003;-77
2023/09/12 02:28:32;;;;;;;23.83;13.20;;;;;;;17.22;100.00;101120.50;6269309;23;20026;-77
2023/09/12 02:30:57;;;;;;;23.23;12.73;;;;;;;17.21;100.00;101121.50;6242736;23;19999;-77
2023/09/12 02:33:23;;;;;;;23.65;13.45;;;;;;;17.22;100.00;101114.19;6268448;23;20012;-77
2023/09/12 02:35:48;;;;;;;25.15;13.23;;;;;;;17.22;100.00;101114.19;6244000;23;19996;-76
2023/09/12 02:38:13;;;;;;;26.92;12.63;;;;;;;17.22;100.00;101116.91;6270096;23;20035;-77
2023/09/12 02:40:39;;;;;;;24.98;13.85;;;;;;;17.21;100.00;101115.22;6270092;23;19989;-77
2023/09/12 02:43:04;;;;;;;26.48;13.07;;;;;;;17.18;100.00;101116.38;6242757;23;19988;-77
2023/09/12 02:45:29;;;;;;;22.33;12.15;;;;;;;17.15;100.00;101110.41;6242784;23;20016;-76
2023/09/12 02:47:55;;;;;;;25.83;12.63;;;;;;;17.13;100.00;101118.69;6243564;23;19992;-76
2023/09/12 02:50:20;;;;;;;24.40;11.77;;;;;;;17.13;100.00;101118.69;6270460;23;19996;-77
2023/09/12 02:52:45;;;;;;;22.33;11.60;;;;;;;17.09;100.00;101111.84;6269172;23;20003;-77
2023/09/12 02:55:11;;;;;;;23.98;12.13;;;;;;;17.08;100.00;101115.56;6243385;22;19996;-76
2023/09/12 02:57:36;;;;;;;26.65;13.02;;;;;;;17.04;100.00;101115.00;6244199;23;20007;-77
2023/09/12 03:00:01;;;;;;;26.08;12.60;;;;;;;17.02;100.00;101111.56;6243263;23;19991;-77
2023/09/12 03:02:29;;;;;;;24.45;13.75;;;;;;;17.02;100.00;101113.44;6269521;23;20000;-77
2023/09/12 03:04:54;;;;;;;25.48;13.43;;;;;;;16.97;100.00;101119.31;6243672;23;20014;-77
2023/09/12 03:07:19;;;;;;;24.23;12.15;;;;;;;16.96;100.00;101114.03;6243127;23;19996;-77
2023/09/12 03:09:48;;;;;;;24.67;13.07;;;;;;;16.95;100.00;101118.59;6243962;23;20012;-76
2023/09/12 03:12:13;;;;;;;24.80;13.95;;;;;;;16.93;100.00;101113.31;6242393;23;20018;-77
2023/09/12 03:14:39;;;;;;;24.98;13.07;;;;;;;16.91;100.00;101120.75;6269365;22;20008;-77
2023/09/12 03:17:04;;;;;;;23.98;12.70;;;;;;;16.89;100.00;101119.19;6243546;23;20225;-77
2023/09/12 03:19:30;;;;;;;25.95;13.10;;;;;;;16.88;100.00;101115.63;6268282;22;20043;-76
2023/09/12 03:21:55;;;;;;;25.05;14.07;;;;;;;16.88;100.00;101106.63;6214122;23;20038;-77
2023/09/12 03:24:23;;;;;;;23.90;13.60;;;;;;;16.89;100.00;101100.19;6240285;23;20019;-77
2023/09/12 03:26:49;;;;;;;27.83;14.95;;;;;;;16.88;100.00;101087.59;6241296;23;20008;-77
2023/09/12 03:29:14;;;;;;;26.52;14.63;;;;;;;16.88;100.00;101096.63;6213916;23;20000;-77
2023/09/12 03:31:39;;;;;;;23.85;12.85;;;;;;;16.86;100.00;101101.31;6242307;23;20038;-77
2023/09/12 03:34:04;;;;;;;23.20;12.75;;;;;;;16.83;100.00;101104.31;6214413;23;20032;-77
2023/09/12 03:36:30;;;;;;;25.00;11.85;;;;;;;16.82;100.00;101096.31;6243121;23;20003;-77
2023/09/12 03:38:55;;;;;;;26.08;13.05;;;;;;;16.78;100.00;101093.91;6243199;23;20358;-77
2023/09/12 03:41:24;;;;;;;24.40;14.10;;;;;;;16.81;100.00;101100.91;6215857;23;20095;-77
2023/09/12 03:43:50;;;;;;;;;;;;;;;16.87;100.00;101104.91;6243547;23;20008;-77
2023/09/12 03:46:15;;;;;;;24.33;13.65;;;;;;;16.78;100.00;101107.47;6215404;23;19930;-77
2023/09/12 03:48:40;;;;;;;28.85;14.10;;;;;;;16.76;100.00;101105.91;6242928;23;20367;-77
2023/09/12 03:51:06;;;;;;;26.98;15.43;;;;;;;16.76;100.00;101105.91;6242629;23;20087;-77
2023/09/12 03:53:31;;;;;;;25.27;13.52;;;;;;;16.75;100.00;101110.47;6214324;23;20091;-77
2023/09/12 03:55:57;;;;;;;27.30;14.48;;;;;;;16.78;100.00;101107.47;6242374;23;20004;-77
2023/09/12 03:58:23;;;;;;;28.38;15.00;;;;;;;16.78;100.00;101098.50;6215503;23;20012;-77
2023/09/12 04:00:48;;;;;;;27.52;14.55;;;;;;;16.81;100.00;101105.47;6241862;23;20011;-77
2023/09/12 04:03:16;;;;;;;46.08;17.27;;;;;;;16.80;100.00;101103.78;6215769;23;20397;-77
2023/09/12 04:05:41;;;;;;;26.95;15.05;;;;;;;16.82;100.00;101094.44;6242875;23;20084;-77
2023/09/12 04:08:07;;;;;;;27.38;15.43;;;;;;;16.82;100.00;101099.88;6215408;23;20157;-77
2023/09/12 04:10:32;;;;;;;24.70;14.50;;;;;;;16.83;100.00;101095.31;6215676;23;20008;-77
2023/09/12 04:12:57;;;;;;;25.40;14.75;;;;;;;16.85;100.00;101093.31;6214766;23;20385;-77
2023/09/12 04:15:23;;;;;;;25.55;14.05;;;;;;;16.87;100.00;101080.47;6214898;23;20008;-77
2023/09/12 04:17:48;;;;;;;26.48;14.65;;;;;;;16.89;100.00;101092.03;6242905;23;20004;-77
2023/09/12 04:20:14;;;;;;;24.88;13.48;;;;;;;16.91;100.00;101096.34;6242866;23;20440;-77
2023/09/12 04:22:40;;;;;;;26.00;14.80;;;;;;;16.92;100.00;101084.44;6242587;23;20004;-77
2023/09/12 04:25:06;;;;;;;28.00;15.30;;;;;;;16.92;100.00;101086.31;6215290;23;20016;-77
2023/09/12 04:27:32;;;;;;;30.08;15.48;;;;;;;16.94;100.00;101078.88;6214687;23;20058;-77
2023/09/12 04:29:57;;;;;;;25.38;14.65;;;;;;;16.97;100.00;101085.88;6244356;23;20042;-75
2023/09/12 04:32:23;;;;;;;25.98;15.45;;;;;;;16.98;100.00;101098.44;6246789;23;20004;-76
2023/09/12 04:34:49;;;;;;;27.17;15.95;;;;;;;17.00;100.00;101099.13;6217920;23;20027;-76
2023/09/12 04:37:14;;;;;;;32.17;15.45;;;;;;;17.01;100.00;101099.00;6245211;23;20322;-77
2023/09/12 04:39:40;;;;;;;27.10;16.52;;;;;;;17.02;100.00;101095.28;6247005;23;20029;-75
2023/09/12 04:42:05;;;;;;;41.47;17.63;;;;;;;17.03;100.00;101099.72;6219427;23;20032;-76
2023/09/12 04:44:39;;;;;;;28.33;17.48;;;;;;;17.03;100.00;101098.84;6221187;23;20046;-75
2023/09/12 04:47:04;;;;;;;27.30;17.33;;;;;;;17.03;100.00;101094.28;6248476;23;20111;-76
2023/09/12 04:49:29;;;;;;;28.85;17.65;;;;;;;17.05;100.00;101099.56;6221856;23;20091;-76
2023/09/12 04:51:55;;;;;;;27.73;16.00;;;;;;;17.05;100.00;101108.56;6221469;23;20038;-76
2023/09/12 04:54:20;;;;;;;27.15;16.67;;;;;;;17.05;100.00;101107.72;6218456;23;20050;-76
2023/09/12 04:56:45;;;;;;;27.70;15.98;;;;;;;17.02;100.00;101106.16;6217771;23;20322;-76
2023/09/12 04:59:11;;;;;;;29.30;17.80;;;;;;;17.03;100.00;101113.28;6219471;23;20004;-75
2023/09/12 05:01:36;;;;;;;26.85;16.33;;;;;;;17.02;100.00;101114.28;6219670;23;20448;-76
2023/09/12 05:04:03;;;;;;;28.45;16.98;;;;;;;17.02;100.00;101111.56;6245381;23;20310;-75
2023/09/12 05:06:28;;;;;;;28.95;17.25;;;;;;;17.02;100.00;101106.16;6219243;23;20031;-75
2023/09/12 05:08:53;;;;;;;30.35;18.83;;;;;;;17.02;100.00;101106.16;6219955;23;19996;-76
2023/09/12 05:11:19;;;;;;;35.05;17.55;;;;;;;17.02;100.00;101111.56;6218939;23;20000;-76
2023/09/12 05:13:44;;;;;;;30.02;19.20;;;;;;;17.03;100.00;101113.28;6245332;23;20082;-76
2023/09/12 05:16:09;;;;;;;30.15;18.08;;;;;;;17.02;100.00;101119.72;6217905;23;20528;-75
2023/09/12 05:18:35;;;;;;;30.05;18.48;;;;;;;17.03;100.00;101118.72;6218419;23;20397;-76
2023/09/12 05:21:00;;;;;;;29.42;18.23;;;;;;;17.03;100.00;101109.69;6218927;23;20070;-76
2023/09/12 05:23:25;;;;;;;33.03;20.33;;;;;;;17.03;100.00;101102.44;6218905;23;20024;-76
2023/09/12 05:25:51;;;;;;;31.45;19.15;;;;;;;17.04;100.00;101103.28;6245937;23;20029;-75
2023/09/12 05:28:16;;;;;;;32.08;18.63;;;;;;;17.04;100.00;101096.00;6246066;23;20000;-76
2023/09/12 05:30:42;;;;;;;32.40;20.05;;;;;;;17.04;100.00;101090.56;6246758;23;20007;-75
2023/09/12 05:33:08;;;;;;;32.50;19.45;;;;;;;17.05;100.00;101080.56;6243980;23;20061;-75
2023/09/12 05:35:33;;;;;;;32.42;19.42;;;;;;;17.06;100.00;101079.56;6242500;23;20023;-74
2023/09/12 05:37:58;;;;;;;30.05;19.05;;;;;;;17.08;100.00;101074.81;6241283;23;20011;-73
2023/09/12 05:40:24;;;;;;;29.95;17.83;;;;;;;17.08;100.00;101083.81;6243096;23;20043;-73
2023/09/12 05:42:49;;;;;;;30.73;18.30;;;;;;;17.08;100.00;101085.69;6242054;23;20082;-74
2023/09/12 05:45:14;;;;;;;29.15;18.17;;;;;;;17.08;100.00;101085.69;6215302;23;20000;-74
2023/09/12 05:47:40;;;;;;;31.55;20.02;;;;;;;17.07;100.00;101087.56;6214781;23;20028;-75
2023/09/12 05:50:06;;;;;;;33.80;19.85;;;;;;;17.08;100.00;101093.84;6241252;23;20080;-75
2023/09/12 05:52:32;;;;;;;29.30;17.38;;;;;;;17.10;100.00;101102.69;6240968;23;20003;-75
2023/09/12 05:54:57;;;;;;;29.85;17.77;;;;;;;17.12;100.00;101101.53;6241157;23;20398;-74
2023/09/12 05:57:23;;;;;;;31.38;19.10;;;;;;;17.14;100.00;101101.38;6239792;23;20000;-76
2023/09/12 05:59:49;;;;;;;30.92;18.48;;;;;;;17.15;100.00;101100.38;6242516;23;20004;-75
2023/09/12 06:02:14;;;;;;;34.70;18.77;;;;;;;17.19;100.00;101106.34;6242045;23;20015;-74
2023/09/12 06:04:40;;;;;;;33.13;19.40;;;;;;;17.18;100.00;101105.50;6241676;23;20365;-73
2023/09/12 06:07:05;;;;;;;39.75;20.80;;;;;;;17.19;100.00;101106.34;6241268;23;20011;-73
2023/09/12 06:09:31;;;;;;;33.90;20.65;;;;;;;17.18;100.00;101108.22;6214321;23;20004;-73
2023/09/12 06:11:56;;;;;;;31.52;18.48;;;;;;;17.20;100.00;101108.06;6242053;23;20468;-74
2023/09/12 06:14:22;;;;;;;33.95;19.05;;;;;;;17.21;100.00;101116.06;6213478;23;20004;-72
2023/09/12 06:16:47;;;;;;;34.35;18.73;;;;;;;17.23;100.00;101119.50;6215590;23;20000;-73
2023/09/12 06:19:14;;;;;;;33.13;19.70;;;;;;;17.23;100.00;101116.81;6240732;23;20012;-72
2023/09/12 06:21:40;;;;;;;35.00;20.55;;;;;;;17.24;100.00;101123.06;6241228;23;20011;-72
2023/09/12 06:24:24;;;;;;;31.63;18.77;;;;;;;17.24;100.00;101120.34;6241054;23;20012;-72
2023/09/12 06:26:50;;;;;;;29.67;19.88;;;;;;;17.25;100.00;101116.66;6214933;23;20004;-72
2023/09/12 06:29:15;;;;;;;31.35;19.38;;;;;;;17.27;100.00;101118.19;6215135;23;20062;-72
2023/09/12 06:31:41;;;;;;;31.08;19.85;;;;;;;17.30;100.00;101119.75;6239947;23;20004;-73
2023/09/12 06:34:07;;;;;;;32.05;19.58;;;;;;;17.33;100.00;101124.03;6241349;23;20123;-72
2023/09/12 06:36:32;;;;;;;38.88;19.63;;;;;;;17.33;100.00;101118.59;6215055;23;20429;-71
2023/09/12 06:38:59;;;;;;;33.17;19.65;;;;;;;17.34;100.00;101121.16;6242602;23;20036;-71
2023/09/12 06:41:25;;;;;;;35.95;20.02;;;;;;;17.36;100.00;101126.44;6242143;23;20014;-70
2023/09/12 06:43:51;;;;;;;36.03;21.42;;;;;;;17.37;100.00;101126.31;6213912;23;20062;-70
2023/09/12 06:46:19;;;;;;;32.75;20.42;;;;;;;17.37;100.00;101137.16;6210669;23;20004;-71
2023/09/12 06:48:45;;;;;;;32.35;19.95;;;;;;;17.40;100.00;101138.75;6241999;23;20023;-70
2023/09/12 06:51:11;;;;;;;34.25;19.80;;;;;;;17.41;100.00;101133.16;6215329;23;20012;-73
2023/09/12 06:53:39;;;;;;;34.47;23.40;;;;;;;17.43;100.00;101136.56;6241242;23;20050;-70
2023/09/12 06:56:05;;;;;;;34.72;22.52;;;;;;;17.44;100.00;101141.00;6214321;23;20466;-71
2023/09/12 06:58:30;;;;;;;38.15;23.33;;;;;;;17.46;100.00;101135.41;6240687;23;20028;-71
2023/09/12 07:00:56;;;;;;;34.40;20.95;;;;;;;17.49;100.00;101139.69;6241896;23;20004;-73
2023/09/12 07:03:21;;;;;;;36.60;23.13;;;;;;;17.51;100.00;101137.66;6241550;23;20007;-70
2023/09/12 07:05:48;;;;;;;35.90;22.77;;;;;;;17.52;100.00;101133.97;6215446;23;20012;-70
2023/09/12 07:08:14;;;;;;;35.53;23.00;;;;;;;17.55;100.00;101134.50;6241017;23;20011;-71
2023/09/12 07:10:45;;;;;;;35.72;23.35;;;;;;;17.61;100.00;101133.03;6242292;23;20441;-71
2023/09/12 07:13:11;;;;;;;33.80;21.80;;;;;;;17.64;100.00;101136.31;6215867;23;20008;-71
2023/09/12 07:15:36;;;;;;;37.00;23.75;;;;;;;17.66;100.00;101130.72;6242557;23;20007;-71
2023/09/12 07:18:02;;;;;;;39.50;24.60;;;;;;;17.70;100.00;101137.59;6242683;23;20070;-71
2023/09/12 07:20:27;;;;;;;34.10;24.02;;;;;;;17.72;100.00;101137.44;6242674;23;20000;-71
2023/09/12 07:22:52;;;;;;;36.63;24.73;;;;;;;17.75;100.00;101148.84;6243094;23;20429;-71
2023/09/12 07:25:19;;;;;;;36.78;22.77;;;;;;;17.78;100.00;101145.81;6242749;23;20107;-71
2023/09/12 07:27:44;;;;;;;37.30;23.45;;;;;;;17.80;100.00;101143.81;6215340;23;20345;-71
2023/09/12 07:30:10;;;;;;;34.78;23.55;;;;;;;17.80;100.00;101143.81;6216152;23;20086;-72
2023/09/12 07:32:35;;;;;;;34.17;22.73;;;;;;;17.84;100.00;101151.66;6242675;23;20008;-71
2023/09/12 07:35:00;;;;;;;34.00;23.80;;;;;;;17.84;100.00;101147.06;6242945;23;20042;-72
2023/09/12 07:37:26;;;;;;;33.53;21.63;;;;;;;17.85;100.00;101150.63;6215480;23;20003;-71
2023/09/12 07:39:51;;;;;;;33.20;21.52;;;;;;;17.88;100.00;101147.59;6242148;23;20004;-70
2023/09/12 07:42:20;;;;;;;34.05;21.30;;;;;;;17.91;100.00;101145.47;6242484;23;20061;-71
2023/09/12 07:44:45;;;;;;;34.80;23.70;;;;;;;17.97;100.00;101144.88;6242494;23;20004;-71
2023/09/12 07:47:10;;;;;;;34.72;21.67;;;;;;;18.02;100.00;101141.69;6242215;23;20033;-71
2023/09/12 07:49:36;;;;;;;36.17;25.08;;;;;;;18.03;100.00;101140.69;6215655;23;20365;-71
2023/09/12 07:52:01;;;;;;;36.60;24.10;;;;;;;18.09;100.00;101142.78;6215093;23;20305;-71
2023/09/12 07:54:27;;;;;;;42.40;27.92;;;;;;;18.14;100.00;101137.75;6215326;23;20005;-71
2023/09/12 07:56:53;;;;;;;39.97;28.10;;;;;;;18.20;100.00;101136.25;6242379;23;20274;-71
2023/09/12 07:59:18;;;;;;;38.00;27.80;;;;;;;18.24;100.00;101147.69;6241193;23;20338;-71
2023/09/12 08:01:43;;;;;;;37.30;24.45;;;;;;;18.26;100.00;101154.69;6217232;23;20008;-71
2023/09/12 08:04:09;;;;;;;35.15;24.33;;;;;;;18.31;100.00;101148.75;6244057;23;20422;-71
2023/09/12 08:06:34;;;;;;;36.03;23.38;;;;;;;18.33;100.00;101152.16;6243495;23;20004;-73
2023/09/12 08:09:00;;;;;;;32.72;22.33;;;;;;;18.40;100.00;101157.84;6243652;23;20346;-73
2023/09/12 08:11:26;;;;;;;35.30;23.55;;;;;;;18.46;100.00;101165.38;6219984;23;20000;-74
2023/09/12 08:13:52;;;;;;;32.65;22.65;;;;;;;18.48;100.00;101174.28;6220893;23;20023;-76
2023/09/12 08:16:17;;;;;;;34.15;23.40;;;;;;;18.56;100.00;101181.66;6251717;23;20000;-70
2023/09/12 08:18:42;;;;;;;36.35;24.75;;;;;;;18.61;100.00;101187.47;6245872;23;20031;-73
2023/09/12 08:21:08;;;;;;;33.60;22.33;;;;;;;18.63;100.00;101182.72;6217215;23;20016;-72
2023/09/12 08:23:33;;;;;;;35.17;24.00;;;;;;;18.68;100.00;101177.66;6216594;23;20015;-72
2023/09/12 08:25:59;;;;;;;36.70;24.20;;;;;;;18.73;100.00;101186.22;6241441;23;20014;-72
2023/09/12 08:28:24;;;;;;;35.72;25.55;;;;;;;18.79;100.00;101182.84;6242433;23;20445;-73
2023/09/12 08:30:50;;;;;;;31.85;22.00;;;;;;;18.83;100.00;101197.88;6242038;23;20041;-72
2023/09/12 08:33:15;;;;;;;32.33;21.30;;;;;;;18.86;100.00;101200.31;6243195;23;20325;-73
2023/09/12 08:35:40;;;;;;;36.15;24.15;;;;;;;18.93;100.00;101214.16;6243930;23;20000;-72
2023/09/12 08:38:06;;;;;;;33.08;21.50;;;;;;;18.97;100.00;101212.81;6216126;23;20491;-72
2023/09/12 08:40:32;;;;;;;32.25;20.38;;;;;;;18.98;100.00;101208.22;6242693;23;20023;-72
2023/09/12 08:42:58;;;;;;;31.48;19.73;;;;;;;19.00;100.00;101207.03;6215115;23;20087;-73
2023/09/12 08:45:24;;;;;;;36.75;20.63;;;;;;;19.06;100.00;101201.97;6242470;23;20460;-72
2023/09/12 08:47:53;;;;;;;34.08;20.67;;;;;;;19.09;100.00;101198.94;6242076;23;20042;-73
2023/09/12 08:50:21;;;;;;;31.08;19.08;;;;;;;19.12;100.00;101202.22;6241564;23;20015;-72
2023/09/12 08:52:47;;;;;;;31.33;19.58;;;;;;;19.18;100.00;101204.28;6243340;23;20397;-72
2023/09/12 08:55:13;;;;;;;30.70;19.75;;;;;;;19.21;100.00;101201.22;6243372;23;20089;-73
2023/09/12 08:57:40;;;;;;;33.72;19.63;;;;;;;19.25;100.00;101203.63;6215388;23;20043;-72
2023/09/12 09:00:08;;;;;;;32.30;18.67;;;;;;;19.26;100.00;101208.06;6216054;23;20442;-72
2023/09/12 09:02:35;;;;;;;28.30;17.65;;;;;;;19.32;100.00;101211.00;6242623;23;20092;-72
2023/09/12 09:05:05;;;;;;;30.98;18.42;;;;;;;19.38;100.00;101218.53;6243711;23;20000;-73
2023/09/12 09:07:36;;;;;;;27.38;16.80;;;;;;;19.41;100.00;101217.34;6217249;23;20015;-73
2023/09/12 09:10:05;;;;;;;28.92;16.35;;;;;;;19.49;100.00;101216.56;6240826;23;20437;-74
2023/09/12 09:12:30;;;;;;;27.77;15.68;;;;;;;19.52;100.00;101210.78;6240367;23;20008;-73
2023/09/12 09:14:55;;;;;;;28.10;16.73;;;;;;;19.59;100.00;101205.50;6239876;23;20031;-74
2023/09/12 09:17:21;;;;;;;31.63;18.33;;;;;;;19.65;100.00;101197.56;6240987;23;20027;-72
2023/09/12 09:19:47;;;;;;;32.65;19.58;;;;;;;19.66;100.00;101185.59;6214199;23;20004;-71
2023/09/12 09:22:13;;;;;;;30.95;16.65;;;;;;;19.69;100.00;101184.44;6241322;23;20028;-73
2023/09/12 09:24:38;;;;;;;38.70;24.05;;;;;;;19.71;100.00;101176.97;6241291;23;20079;-73
2023/09/12 09:27:05;;;;;;;41.03;27.27;;;;;;;19.72;100.00;101184.09;6214965;23;20099;-73
2023/09/12 09:29:31;;;;;;;39.30;26.63;;;;;;;19.72;100.00;101173.19;6241076;23;20031;-74
2023/09/12 09:31:59;;;;;;;41.08;25.98;;;;;;;19.77;100.00;101175.44;6214248;23;20054;-73
2023/09/12 09:34:27;;;;;;;37.30;22.83;;;;;;;19.81;100.00;101177.72;6240823;23;20078;-73
2023/09/12 09:36:54;;;;;;;44.42;28.27;;;;;;;19.82;100.00;101182.13;6240930;23;20004;-73
2023/09/12 09:39:24;;;;;;;33.67;21.20;;;;;;;19.86;100.00;101180.78;6241494;23;20008;-73
2023/09/12 09:41:51;;;;;;;42.53;28.13;;;;;;;19.96;100.00;101188.84;6241426;23;20008;-72
2023/09/12 09:44:17;;;;;;;46.67;27.60;;;;;;;19.97;100.00;101176.91;6241721;23;20414;-72
2023/09/12 09:46:46;;;;;;;45.83;27.25;;;;;;;20.05;100.00;101170.59;6241592;23;20068;-73
2023/09/12 09:49:14;;;;;;;49.55;27.77;;;;;;;20.12;100.00;101174.38;6214539;23;20011;-72
2023/09/12 09:51:43;;;;;;;34.42;22.45;;;;;;;20.19;100.00;101175.41;6241535;23;20425;-72
2023/09/12 09:54:09;;;;;;;;;;;;;;;20.24;100.00;101177.63;6242029;23;20004;-72
2023/09/12 09:56:55;;;;;;;47.45;30.23;;;;;;;20.31;100.00;101180.53;6241364;23;19911;-73
2023/09/12 09:59:25;;;;;;;47.78;29.67;;;;;;;20.33;100.00;101179.34;6241304;23;20337;-73
2023/09/12 10:01:55;;;;;;;42.97;29.33;;;;;;;20.37;100.00;101177.16;6240679;23;20003;-74
2023/09/12 10:04:23;;;;;;;45.88;28.95;;;;;;;20.39;100.00;101186.00;6240362;23;20008;-73
2023/09/12 10:06:49;;;;;;;45.47;28.33;;;;;;;20.46;100.00;101191.66;6240847;23;20008;-74
2023/09/12 10:09:16;;;;;;;44.20;29.75;;;;;;;20.49;100.00;101181.25;6215085;23;20437;-75
2023/09/12 10:11:46;;;;;;;45.55;29.13;;;;;;;20.53;100.00;101176.31;6240785;23;20000;-74
2023/09/12 10:14:15;;;;;;;38.30;24.55;;;;;;;20.52;100.00;101172.72;6241308;23;20011;-74
2023/09/12 10:17:04;;;;;;;47.63;29.73;;;;;;;20.53;100.00;101174.44;6242222;23;20077;-75
2023/09/12 10:19:38;;;;;;;44.65;28.55;;;;;;;20.54;100.00;101173.41;6229004;23;20374;-73
2023/09/12 10:22:09;;;;;;;46.58;29.25;;;;;;;20.56;100.00;101184.16;6241292;23;20422;-76
2023/09/12 10:24:35;;;;;;;44.65;31.27;;;;;;;20.55;100.00;101174.25;6241410;23;20327;-75
2023/09/12 10:27:03;;;;;;;53.28;33.30;;;;;;;20.58;100.00;101168.44;6238452;23;20016;-75
2023/09/12 10:29:30;;;;;;;42.60;30.98;;;;;;;20.65;100.00;101163.16;6240570;23;20066;-75
2023/09/12 10:31:56;;;;;;;46.03;30.90;;;;;;;20.66;100.00;101159.38;6213107;23;20008;-75
2023/09/12 10:34:25;;;;;;;44.75;32.33;;;;;;;20.68;100.00;101160.13;6213768;23;20390;-75
2023/09/12 10:36:51;;;;;;;50.88;31.23;;;;;;;20.68;100.00;101160.13;6241063;23;20330;-75
2023/09/12 10:39:20;;;;;;;43.08;25.95;;;;;;;20.72;100.00;101156.88;6240163;23;20015;-76
2023/09/12 10:41:46;;;;;;;39.92;25.23;;;;;;;20.76;100.00;101157.38;6241184;23;20034;-77
2023/09/12 10:44:15;;;;;;;34.47;20.50;;;;;;;20.80;100.00;101166.09;6215383;23;20004;-75
2023/09/12 10:46:43;;;;;;;53.90;38.33;;;;;;;20.85;100.00;101164.53;6242144;23;20083;-76
2023/09/12 10:49:10;;;;;;;51.03;37.45;;;;;;;20.90;100.00;101162.13;6242653;23;20023;-75
2023/09/12 10:51:40;;;;;;;49.75;36.17;;;;;;;20.93;100.00;101164.53;6242180;23;20004;-75
2023/09/12 10:54:06;;;;;;;48.78;36.10;;;;;;;20.93;100.00;101161.78;6242287;23;20326;-75
2023/09/12 10:56:33;;;;;;;48.88;36.28;;;;;;;20.97;100.00;101166.91;6214929;23;20417;-74
2023/09/12 10:59:04;;;;;;;51.28;37.67;;;;;;;20.99;100.00;101171.19;6242879;23;20008;-76